Time;durP1;ratioP1;P1;durP2;ratioP2;P2;SDS_P1;SDS_P2;PMS_P1;PMS_P2;Temp;Humidity;BMP_temperature;BMP_pressure;BME280_temperature;BME280_humidity;BME280_pressure;Samples;Min_cycle;Max_cycle;Signal;HPM_P1;HPM_P2
2023/07/04 00:03:19;;;;;;;14.18;6.87;;;;;;;23.11;51.57;99578.09;7792350;32;36379;-79
2023/07/04 00:07:36;;;;;;;20.02;7.43;;;;;;;23.14;51.12;99571.81;7792394;32;36301;-79
2023/07/04 00:11:52;;;;;;;14.02;7.50;;;;;;;23.24;49.61;99576.81;7791650;32;39377;-79
2023/07/04 00:16:11;;;;;;;15.75;7.22;;;;;;;23.29;48.89;99575.75;7791863;32;39915;-79
2023/07/04 00:20:28;;;;;;;14.48;6.80;;;;;;;23.38;47.94;99579.13;7791423;32;37733;-79
2023/07/04 00:24:46;;;;;;;12.63;6.57;;;;;;;23.44;47.98;99584.03;7791119;32;37170;-80
2023/07/04 00:29:02;;;;;;;13.32;7.12;;;;;;;23.43;48.81;99576.84;7789661;32;40187;-77
2023/07/04 00:33:24;;;;;;;14.38;7.43;;;;;;;23.39;49.55;99578.75;7790468;32;39879;-80
2023/07/04 00:37:43;;;;;;;15.73;7.62;;;;;;;23.29;50.06;99586.88;7791403;32;37988;-79
2023/07/04 00:42:01;;;;;;;14.50;7.10;;;;;;;23.30;50.28;99591.25;7791365;32;36939;-80
2023/07/04 00:46:26;;;;;;;13.48;7.35;;;;;;;23.24;50.31;99591.53;7791231;32;40093;-79
2023/07/04 00:50:45;;;;;;;13.07;7.07;;;;;;;23.31;49.42;99592.88;7789363;32;39980;-80
2023/07/04 00:55:07;;;;;;;12.80;7.25;;;;;;;23.24;49.93;99593.50;7789818;32;38525;-78
2023/07/04 00:59:25;;;;;;;16.77;7.70;;;;;;;23.19;50.74;99591.00;7790432;32;36778;-79
2023/07/04 01:03:41;;;;;;;14.05;6.25;;;;;;;23.16;51.10;99581.44;7819633;32;38918;-79
2023/07/04 01:08:06;;;;;;;13.05;6.05;;;;;;;23.10;51.55;99584.84;7821646;32;39728;-79
2023/07/04 01:12:27;;;;;;;11.70;6.05;;;;;;;22.96;52.21;99582.50;7797937;32;37821;-79
2023/07/04 01:16:44;;;;;;;12.63;7.05;;;;;;;23.02;52.20;99586.59;7780762;32;36946;-79
2023/07/04 01:21:01;;;;;;;13.00;6.68;;;;;;;22.94;52.18;99582.03;7817695;32;39381;-79
2023/07/04 01:25:42;;;;;;;14.93;7.15;;;;;;;23.08;51.72;99589.94;7820058;32;40606;-79
2023/07/04 01:30:04;;;;;;;16.75;7.18;;;;;;;23.13;51.44;99575.75;7802994;32;37789;-79
2023/07/04 01:34:28;;;;;;;13.52;6.80;;;;;;;22.71;52.53;99576.31;7793973;32;37937;-79
2023/07/04 01:38:45;;;;;;;16.12;6.80;;;;;;;22.84;52.05;99575.88;7812050;32;39266;-79
2023/07/04 01:43:03;;;;;;;16.73;7.07;;;;;;;22.71;53.03;99585.44;7821065;32;39951;-79
2023/07/04 01:47:19;;;;;;;14.68;7.55;;;;;;;22.76;52.84;99589.94;7803320;32;37865;-79
2023/07/04 01:51:39;;;;;;;14.93;7.03;;;;;;;22.73;53.18;99591.44;7819712;32;38018;-78
2023/07/04 01:55:55;;;;;;;13.57;6.85;;;;;;;22.80;52.85;99588.87;7819864;32;40046;-80
2023/07/04 02:00:12;;;;;;;13.60;6.90;;;;;;;22.74;52.90;99579.19;7779475;32;39846;-79
2023/07/04 02:04:29;;;;;;;14.45;7.00;;;;;;;22.68;53.37;99588.97;7792149;32;37969;-79
2023/07/04 02:08:46;;;;;;;13.15;6.87;;;;;;;22.59;53.57;99602.22;7812355;32;38350;-79
2023/07/04 02:13:02;;;;;;;13.55;6.55;;;;;;;22.58;53.54;99600.62;7820439;32;39009;-82
2023/07/04 02:17:18;;;;;;;14.07;7.22;;;;;;;22.49;53.95;99597.97;7810987;32;40063;-79
2023/07/04 02:21:35;;;;;;;11.70;6.05;;;;;;;22.48;54.01;99599.97;7795945;32;38660;-79
2023/07/04 02:25:54;;;;;;;12.70;5.82;;;;;;;22.51;54.07;99601.22;7793173;32;37080;-78
2023/07/04 02:30:10;;;;;;;11.60;6.25;;;;;;;22.62;53.66;99607.06;7820727;32;39037;-79
2023/07/04 02:34:27;;;;;;;10.63;5.55;;;;;;;22.60;53.66;99604.63;7820574;32;41185;-79
2023/07/04 02:38:43;;;;;;;14.38;6.15;;;;;;;22.38;54.52;99611.59;7801873;32;37957;-78
2023/07/04 02:43:00;;;;;;;10.98;5.53;;;;;;;22.48;54.40;99624.16;7793030;32;37005;-78
2023/07/04 02:47:18;;;;;;;13.70;5.75;;;;;;;22.42;54.96;99626.41;7812219;32;40044;-78
2023/07/04 02:51:34;;;;;;;12.32;5.60;;;;;;;22.30;55.71;99640.31;7820392;32;39004;-78
2023/07/04 02:55:52;;;;;;;11.02;5.87;;;;;;;21.91;57.51;99649.13;7809942;32;38082;-79
2023/07/04 03:00:09;;;;;;;11.57;5.85;;;;;;;22.04;57.05;99637.97;7792727;32;36050;-79
2023/07/04 03:04:26;;;;;;;11.65;5.95;;;;;;;22.07;57.40;99649.19;7793137;32;39028;-79
2023/07/04 03:08:45;;;;;;;15.57;5.53;;;;;;;22.07;57.36;99660.28;7820093;32;40024;-78
2023/07/04 03:13:01;;;;;;;12.80;6.28;;;;;;;22.11;57.34;99655.66;7819973;32;37720;-79
2023/07/04 03:17:18;;;;;;;11.57;5.85;;;;;;;22.06;57.44;99663.41;7800633;32;36831;-78
2023/07/04 03:21:34;;;;;;;14.52;6.37;;;;;;;21.92;59.17;99664.63;7792559;32;39942;-78
2023/07/04 03:25:50;;;;;;;11.63;5.82;;;;;;;21.81;58.93;99660.72;7810269;32;40858;-79
2023/07/04 03:30:09;;;;;;;10.85;5.62;;;;;;;21.93;57.33;99666.22;7819803;32;38726;-79
2023/07/04 03:34:25;;;;;;;14.43;6.57;;;;;;;21.82;58.95;99681.78;7808678;32;36310;-78
2023/07/04 03:38:42;;;;;;;10.57;5.72;;;;;;;21.72;61.42;99680.28;7792821;32;39329;-78
2023/07/04 03:42:58;;;;;;;17.85;6.43;;;;;;;21.77;61.15;99684.78;7792413;32;39764;-78
2023/07/04 03:47:14;;;;;;;15.70;6.72;;;;;;;21.66;61.59;99690.00;7810262;32;37951;-78
2023/07/04 03:51:31;;;;;;;12.07;5.87;;;;;;;21.08;63.09;99692.88;7819621;32;37848;-78
2023/07/04 03:55:49;;;;;;;12.77;5.62;;;;;;;21.41;61.93;99691.16;7799819;32;39331;-78
2023/07/04 04:00:08;;;;;;;10.98;5.72;;;;;;;21.28;62.05;99685.59;7790839;32;38935;-78
2023/07/04 04:04:24;;;;;;;12.52;5.97;;;;;;;21.10;61.99;99692.53;7802168;32;38798;-77
2023/07/04 04:08:41;;;;;;;12.75;5.87;;;;;;;21.26;62.20;99690.69;7819399;32;37388;-78
2023/07/04 04:12:57;;;;;;;11.27;5.70;;;;;;;21.03;63.47;99697.84;7818178;32;39405;-78
2023/07/04 04:17:13;;;;;;;13.05;5.37;;;;;;;21.15;61.59;99695.87;7791832;32;40155;-78
2023/07/04 04:21:30;;;;;;;10.70;5.95;;;;;;;20.93;62.19;99691.56;7791805;32;37652;-78
2023/07/04 04:25:46;;;;;;;13.62;5.80;;;;;;;21.09;63.81;99696.44;7791601;32;36952;-78
2023/07/04 04:30:08;;;;;;;11.30;5.50;;;;;;;21.28;63.68;99691.13;7791717;32;39287;-78
2023/07/04 04:34:24;;;;;;;15.75;5.82;;;;;;;21.24;64.33;99687.44;7800823;32;40977;-79
2023/07/04 04:38:41;;;;;;;14.25;5.85;;;;;;;21.37;64.18;99699.38;7818688;32;37854;-79
2023/07/04 04:42:57;;;;;;;13.62;5.82;;;;;;;21.36;64.32;99693.00;7818173;32;37889;-79
2023/07/04 04:47:13;;;;;;;17.23;6.12;;;;;;;21.07;65.45;99699.56;7791476;32;38263;-78
2023/07/04 04:51:31;;;;;;;12.73;6.30;;;;;;;21.19;65.37;99707.88;7792632;32;39681;-79
2023/07/04 04:55:47;;;;;;;12.10;5.68;;;;;;;21.31;65.00;99718.16;7817521;32;37497;-78
2023/07/04 05:00:05;;;;;;;13.65;6.10;;;;;;;21.30;65.24;99713.81;7818145;32;37116;-78
2023/07/04 05:04:23;;;;;;;11.00;5.43;;;;;;;21.11;66.04;99721.84;7798030;32;39103;-78
2023/07/04 05:08:40;;;;;;;13.85;6.15;;;;;;;21.42;64.96;99723.25;7790734;32;40567;-78
2023/07/04 05:12:57;;;;;;;11.35;5.45;;;;;;;21.45;65.14;99719.78;7796911;32;37900;-77
2023/07/04 05:17:15;;;;;;;12.15;6.07;;;;;;;21.43;64.99;99717.38;7807282;32;36792;-78
2023/07/04 05:21:31;;;;;;;12.63;6.07;;;;;;;21.59;64.47;99716.69;7816966;31;38478;-78
2023/07/04 05:25:57;;;;;;;11.93;5.82;;;;;;;21.57;64.55;99730.91;7790522;32;40162;-79
2023/07/04 05:30:14;;;;;;;12.30;6.10;;;;;;;21.56;64.32;99724.56;7790414;32;37720;-78
2023/07/04 05:34:31;;;;;;;12.52;5.37;;;;;;;21.63;63.82;99735.09;7810193;32;37160;-79
2023/07/04 05:38:48;;;;;;;11.27;5.68;;;;;;;21.44;65.31;99749.50;7817281;32;39260;-79
2023/07/04 05:43:05;;;;;;;10.00;5.55;;;;;;;21.71;64.36;99747.19;7805106;32;39867;-78
2023/07/04 05:47:21;;;;;;;12.00;5.87;;;;;;;21.80;64.68;99747.91;7790658;32;37966;-78
2023/07/04 05:51:38;;;;;;;14.73;6.07;;;;;;;21.60;64.70;99746.88;7794385;32;37584;-79
2023/07/04 05:56:11;;;;;;;14.30;5.93;;;;;;;21.52;65.11;99745.00;7821002;32;40222;-79
2023/07/04 06:00:28;;;;;;;12.80;6.10;;;;;;;21.65;64.31;99754.97;7816544;32;39728;-79
2023/07/04 06:04:45;;;;;;;13.05;6.32;;;;;;;21.70;64.32;99749.19;7793639;32;35924;-80
2023/07/04 06:09:04;;;;;;;13.10;6.15;;;;;;;21.70;65.19;99759.47;7793481;32;37879;-78
2023/07/04 06:13:20;;;;;;;12.57;6.28;;;;;;;21.75;64.55;99760.03;7815823;32;39914;-78
2023/07/04 06:17:37;;;;;;;14.05;6.45;;;;;;;21.82;64.39;99769.72;7820612;32;39920;-79
2023/07/04 06:21:55;;;;;;;16.70;7.15;;;;;;;21.67;65.37;99777.59;7807397;32;38454;-78
2023/07/04 06:26:12;;;;;;;14.68;6.22;;;;;;;21.82;64.82;99784.44;7793515;32;37713;-78
2023/07/04 06:30:32;;;;;;;12.93;5.95;;;;;;;21.53;65.29;99777.16;7796573;32;39347;-79
2023/07/04 06:34:48;;;;;;;13.85;6.50;;;;;;;21.65;65.23;99785.47;7820506;32;40089;-79
2023/07/04 06:39:04;;;;;;;11.18;5.87;;;;;;;21.83;65.17;99788.00;7812869;32;38780;-70
2023/07/04 06:43:21;;;;;;;14.25;6.82;;;;;;;21.94;65.10;99775.28;7809262;32;37060;-69
2023/07/04 06:47:37;;;;;;;14.68;6.87;;;;;;;21.73;65.00;99776.22;7820003;32;39264;-69
2023/07/04 06:51:53;;;;;;;12.43;6.15;;;;;;;21.66;65.22;99778.78;7807699;32;40840;-69
2023/07/04 06:56:12;;;;;;;15.60;6.72;;;;;;;21.70;64.78;99784.44;7802383;32;38036;-69
2023/07/04 07:00:28;;;;;;;13.80;6.82;;;;;;;21.78;65.08;99799.34;7819939;32;36343;-69
2023/07/04 07:04:45;;;;;;;12.05;5.82;;;;;;;21.83;64.97;99797.13;7808435;32;40191;-69
2023/07/04 07:09:03;;;;;;;12.02;6.12;;;;;;;21.93;65.57;99801.41;7792805;32;39863;-68
2023/07/04 07:13:20;;;;;;;13.65;5.97;;;;;;;22.06;65.02;99796.66;7794551;32;36882;-70
2023/07/04 07:17:36;;;;;;;12.52;5.40;;;;;;;22.13;65.08;99796.91;7819921;32;37258;-69
2023/07/04 07:21:53;;;;;;;18.48;5.72;;;;;;;22.24;64.50;99788.88;7819963;32;39420;-69
2023/07/04 07:26:11;;;;;;;16.73;5.95;;;;;;;22.28;64.50;99781.50;7799297;32;39605;-69
2023/07/04 07:30:28;;;;;;;10.90;5.12;;;;;;;22.33;64.52;99795.13;7818725;32;37613;-71
2023/07/04 07:34:44;;;;;;;13.30;5.75;;;;;;;22.32;65.18;99790.75;7813647;32;36797;-70
2023/07/04 07:39:02;;;;;;;15.18;5.05;;;;;;;22.50;64.83;99788.50;7819727;32;39424;-69
2023/07/04 07:43:19;;;;;;;14.50;5.90;;;;;;;22.56;65.09;99780.72;7803047;32;40314;-70
2023/07/04 07:47:35;;;;;;;11.68;5.45;;;;;;;22.73;64.23;99785.16;7808363;32;37923;-70
2023/07/04 07:51:52;;;;;;;17.20;5.20;;;;;;;22.68;63.34;99783.47;7806410;32;37628;-70
2023/07/04 07:56:11;;;;;;;11.00;5.28;;;;;;;22.65;63.18;99786.94;7806919;32;39404;-70
2023/07/04 08:00:29;;;;;;;8.98;4.47;;;;;;;22.74;62.04;99782.03;7806775;32;262636;-79
2023/07/04 08:04:46;;;;;;;11.43;4.43;;;;;;;22.85;62.06;99776.75;7793864;32;37987;-78
2023/07/04 08:09:05;;;;;;;8.38;4.45;;;;;;;22.81;63.15;99781.44;7804995;32;37966;-77
2023/07/04 08:13:21;;;;;;;13.02;5.03;;;;;;;22.95;61.61;99790.16;7791883;32;39286;-79
2023/07/04 08:17:38;;;;;;;10.95;5.30;;;;;;;22.71;61.48;99784.72;7799054;32;39991;-81
2023/07/04 08:21:54;;;;;;;9.23;5.07;;;;;;;22.65;60.90;99784.97;7808518;32;38056;-78
2023/07/04 08:26:18;;;;;;;12.05;5.32;;;;;;;22.97;59.98;99787.00;7812099;31;37294;-81
2023/07/04 08:30:34;;;;;;;8.40;4.68;;;;;;;23.07;60.80;99789.31;7803073;32;39311;-79
2023/07/04 08:34:51;;;;;;;9.25;5.05;;;;;;;23.30;61.03;99792.31;7818837;32;40789;-79
2023/07/04 08:39:07;;;;;;;15.60;4.47;;;;;;;23.79;59.53;99785.56;7817660;32;38683;-80
2023/07/04 08:43:43;;;;;;;10.68;4.80;;;;;;;23.71;62.44;99781.78;7818739;32;38363;-80
2023/07/04 08:48:00;;;;;;;9.50;4.45;;;;;;;23.77;61.92;99776.78;7816606;32;39098;-70
2023/07/04 08:52:34;;;;;;;12.18;5.07;;;;;;;24.03;60.51;99778.19;7809726;32;40026;-69
2023/07/04 08:56:51;;;;;;;9.90;4.62;;;;;;;24.07;61.93;99781.84;7791423;32;37862;-70
2023/07/04 09:01:16;;;;;;;10.43;4.40;;;;;;;24.30;60.91;99793.91;7817852;32;37925;-70
2023/07/04 09:05:43;;;;;;;7.78;4.07;;;;;;;24.37;58.33;99799.62;7792969;32;39325;-70
2023/07/04 09:10:35;;;;;;;10.98;4.40;;;;;;;24.14;57.73;99807.06;7810377;32;40493;-70
2023/07/04 09:15:03;;;;;;;8.32;4.72;;;;;;;23.83;60.79;99808.75;7816949;32;38768;-70
2023/07/04 09:19:20;;;;;;;9.68;4.68;;;;;;;23.81;61.74;99799.94;7811441;32;38659;-70
2023/07/04 09:23:37;;;;;;;12.90;4.70;;;;;;;23.86;59.64;99799.66;7817811;32;39445;-69
2023/07/04 09:27:53;;;;;;;11.20;4.37;;;;;;;24.04;61.08;99802.06;7794294;32;40326;-70
2023/07/04 09:32:11;;;;;;;13.25;4.55;;;;;;;24.26;59.03;99809.72;7805647;32;37950;-70
2023/07/04 09:36:33;;;;;;;10.27;4.53;;;;;;;24.42;59.88;99811.66;7808749;32;36836;-71
2023/07/04 09:40:55;;;;;;;9.25;4.68;;;;;;;23.94;59.19;99812.59;7791914;32;40023;-70
2023/07/04 09:45:19;;;;;;;9.95;4.62;;;;;;;24.00;59.46;99816.69;7792597;31;39990;-70
2023/07/04 09:49:37;;;;;;;10.30;5.18;;;;;;;24.12;59.04;99818.56;7795244;32;38552;-70
2023/07/04 09:54:19;;;;;;;11.07;4.37;;;;;;;23.98;59.55;99821.81;7792337;32;37329;-72
2023/07/04 09:58:36;;;;;;;9.70;4.05;;;;;;;24.43;58.71;99814.09;7800665;31;40237;-70
2023/07/04 10:03:04;;;;;;;8.15;4.50;;;;;;;24.72;56.92;99807.16;7812338;32;40024;-69
2023/07/04 10:07:23;;;;;;;14.30;4.43;;;;;;;24.61;57.17;99803.34;7818781;32;37961;-70
2023/07/04 10:11:40;;;;;;;8.60;4.18;;;;;;;24.99;57.59;99790.56;7793438;32;37718;-70
2023/07/04 10:15:57;;;;;;;9.95;4.50;;;;;;;25.13;58.19;99801.19;7796311;32;39882;-71
2023/07/04 10:20:14;;;;;;;8.38;4.35;;;;;;;25.41;54.50;99789.75;7820328;32;40773;-70
2023/07/04 10:24:33;;;;;;;7.68;4.20;;;;;;;25.49;54.59;99780.31;7815394;32;37618;-70
2023/07/04 10:28:50;;;;;;;7.68;3.90;;;;;;;25.94;56.76;99780.66;7798892;32;37245;-71
2023/07/04 10:33:30;;;;;;;7.65;4.10;;;;;;;26.05;53.68;99789.97;7791587;32;40162;-71
2023/07/04 10:37:53;;;;;;;9.52;4.00;;;;;;;25.73;53.17;99778.28;7792060;32;40717;-71
2023/07/04 10:42:24;;;;;;;7.18;3.83;;;;;;;25.39;53.19;99780.13;7811629;32;37575;-70
2023/07/04 10:46:57;;;;;;;8.25;3.62;;;;;;;25.35;53.76;99774.47;7819918;32;36779;-70
2023/07/04 10:51:22;;;;;;;6.78;3.42;;;;;;;25.99;52.89;99757.16;7820423;32;39050;-71
2023/07/04 10:56:07;;;;;;;6.60;3.17;;;;;;;26.52;52.80;99759.84;7800770;32;40040;-70
2023/07/04 11:00:34;;;;;;;5.70;2.70;;;;;;;26.80;48.70;99758.59;7814162;32;37766;-70
2023/07/04 11:04:53;;;;;;;5.65;2.72;;;;;;;26.96;49.65;99753.59;7820281;32;37658;-70
2023/07/04 11:09:15;;;;;;;6.05;2.90;;;;;;;26.76;45.79;99757.78;7815990;32;40547;-69
2023/07/04 11:13:31;;;;;;;6.85;2.87;;;;;;;27.16;46.54;99759.81;7816865;32;40746;-70
2023/07/04 11:17:48;;;;;;;5.47;3.10;;;;;;;26.82;47.99;99750.66;7814580;32;38436;-71
2023/07/04 11:22:05;;;;;;;7.47;3.80;;;;;;;27.13;48.68;99748.56;7818737;32;37451;-69
2023/07/04 11:26:51;;;;;;;7.18;3.83;;;;;;;27.15;47.55;99757.37;7819990;32;40234;-71
2023/07/04 11:31:27;;;;;;;9.52;4.12;;;;;;;26.42;47.91;99746.56;7817286;32;40640;-70
2023/07/04 11:35:44;;;;;;;8.43;4.10;;;;;;;26.62;46.37;99744.44;7819868;32;37174;-71
2023/07/04 11:40:18;;;;;;;10.27;4.22;;;;;;;26.35;49.90;99752.84;7819790;32;37110;-70
2023/07/04 11:44:51;;;;;;;7.87;3.80;;;;;;;27.01;47.28;99754.44;7818805;32;39339;-72
2023/07/04 11:49:15;;;;;;;9.18;4.20;;;;;;;27.16;48.02;99750.59;7818545;32;40087;-71
2023/07/04 11:54:01;;;;;;;6.45;3.75;;;;;;;27.24;47.31;99743.06;7818497;32;37986;-71
2023/07/04 11:58:18;;;;;;;9.80;4.30;;;;;;;27.34;47.79;99734.78;7819622;32;37885;-71
2023/07/04 12:02:36;;;;;;;7.65;4.05;;;;;;;27.44;45.12;99738.06;7819164;32;39375;-71
2023/07/04 12:07:00;;;;;;;7.78;4.05;;;;;;;27.82;44.87;99741.53;7819364;32;38936;-70
2023/07/04 12:11:24;;;;;;;9.35;4.70;;;;;;;27.72;45.06;99734.69;7802279;32;38766;-70
2023/07/04 12:15:41;;;;;;;12.43;4.15;;;;;;;27.42;43.20;99730.03;7804247;32;37216;-70
2023/07/04 12:20:11;;;;;;;10.52;4.72;;;;;;;27.65;44.57;99735.44;7804510;32;40176;-71
2023/07/04 12:24:29;;;;;;;8.98;4.53;;;;;;;27.76;42.09;99731.91;7804365;32;39627;-71
2023/07/04 12:28:47;;;;;;;8.90;3.80;;;;;;;27.86;43.34;99719.97;7805157;32;38205;-70
2023/07/04 12:33:03;;;;;;;10.40;4.37;;;;;;;27.79;43.74;99719.94;7816111;32;37082;-70
2023/07/04 12:37:27;;;;;;;7.72;4.22;;;;;;;27.81;44.54;99712.72;7807281;32;39265;-70
2023/07/04 12:41:44;;;;;;;7.07;4.10;;;;;;;27.69;44.37;99694.25;7795327;32;40846;-69
2023/07/04 12:46:11;;;;;;;7.90;3.95;;;;;;;27.75;45.57;99707.88;7803123;32;38780;-71
2023/07/04 12:50:30;;;;;;;8.27;3.80;;;;;;;27.82;45.01;99699.50;7802584;32;36725;-71
2023/07/04 12:54:48;;;;;;;10.88;4.45;;;;;;;27.82;44.47;99699.50;7790923;32;40083;-70
2023/07/04 12:59:05;;;;;;;7.60;3.90;;;;;;;27.98;45.85;99697.25;7798105;32;40908;-70
2023/07/04 13:03:22;;;;;;;6.25;3.47;;;;;;;27.87;44.36;99697.16;7798873;32;38105;-71
2023/07/04 13:07:42;;;;;;;6.35;3.42;;;;;;;27.75;44.30;99693.88;7799887;32;37809;-71
2023/07/04 13:11:59;;;;;;;8.63;3.78;;;;;;;28.26;45.35;99692.97;7799471;32;39839;-69
2023/07/04 13:16:28;;;;;;;7.37;3.72;;;;;;;28.34;42.91;99691.81;7810598;32;39979;-70
2023/07/04 13:20:55;;;;;;;6.87;3.53;;;;;;;28.63;43.76;99694.69;7810120;32;37893;-70
2023/07/04 13:25:19;;;;;;;6.97;3.08;;;;;;;28.64;41.60;99696.31;7808801;32;37173;-71
2023/07/04 13:29:48;;;;;;;6.75;3.47;;;;;;;28.62;42.46;99687.50;7809512;32;40072;-71
2023/07/04 13:34:21;;;;;;;6.28;3.20;;;;;;;28.65;41.92;99690.31;7818058;32;39391;-71
2023/07/04 13:38:39;;;;;;;10.65;3.30;;;;;;;28.60;41.30;99690.69;7818175;32;37968;-70
2023/07/04 13:43:12;;;;;;;5.60;3.15;;;;;;;28.38;43.64;99681.41;7825528;32;37512;-78
2023/07/04 13:47:31;;;;;;;;;;;;;;;28.68;39.84;99679.50;7826246;32;38652;-78
2023/07/04 13:51:47;;;;;;;6.30;3.00;;;;;;;29.37;38.81;99669.94;7818684;32;41118;-80
2023/07/04 13:56:04;;;;;;;6.37;3.37;;;;;;;29.43;40.10;99673.16;7806889;32;37412;-78
2023/07/04 14:00:20;;;;;;;7.35;3.15;;;;;;;29.58;40.76;99664.28;7805407;32;37044;-79
2023/07/04 14:04:41;;;;;;;7.28;3.05;;;;;;;30.10;38.61;99660.16;7798436;32;39302;-78
2023/07/04 14:09:00;;;;;;;8.90;3.62;;;;;;;30.47;38.13;99656.75;7794566;32;39195;-78
2023/07/04 14:13:16;;;;;;;5.90;3.20;;;;;;;30.41;36.94;99658.41;7791609;32;38747;-78
2023/07/04 14:17:33;;;;;;;10.65;3.45;;;;;;;30.36;37.37;99649.63;7793036;32;37305;-80
2023/07/04 14:22:09;;;;;;;8.85;3.58;;;;;;;30.45;37.33;99658.37;7792287;32;39600;-79
2023/07/04 14:26:25;;;;;;;10.02;4.03;;;;;;;30.52;37.37;99649.91;7793138;32;40937;-79
2023/07/04 14:30:42;;;;;;;7.95;3.40;;;;;;;30.87;35.78;99634.78;7792220;32;37735;-78
2023/07/04 14:34:59;;;;;;;6.57;3.25;;;;;;;31.48;33.72;99633.47;7793180;32;37887;-79
2023/07/04 14:39:15;;;;;;;6.85;3.40;;;;;;;31.45;33.94;99635.09;7791434;32;40144;-79
2023/07/04 14:43:32;;;;;;;7.68;3.90;;;;;;;31.71;33.81;99621.56;7793110;32;39825;-78
2023/07/04 14:47:48;;;;;;;8.05;4.20;;;;;;;32.36;30.58;99613.09;7792623;32;37607;-79
2023/07/04 14:52:05;;;;;;;7.78;3.47;;;;;;;31.89;28.85;99612.09;7792282;32;37128;-79
2023/07/04 14:56:21;;;;;;;10.55;4.00;;;;;;;31.48;31.52;99605.28;7792853;32;39308;-79
2023/07/04 15:00:51;;;;;;;7.53;3.35;;;;;;;31.10;31.04;99602.47;7791962;32;41477;-78
2023/07/04 15:05:11;;;;;;;9.63;3.45;;;;;;;31.38;32.31;99592.91;7811316;32;37928;-78
2023/07/04 15:09:30;;;;;;;7.75;3.50;;;;;;;31.17;30.30;99601.59;7819657;32;37179;-78
2023/07/04 15:13:46;;;;;;;7.93;3.67;;;;;;;31.41;30.64;99592.09;7819454;32;40117;-77
2023/07/04 15:18:03;;;;;;;8.13;3.87;;;;;;;31.71;30.19;99592.59;7819978;32;39904;-79
2023/07/04 15:22:19;;;;;;;8.63;3.70;;;;;;;31.01;30.52;99588.87;7817774;32;37920;-79
2023/07/04 15:26:36;;;;;;;8.30;4.25;;;;;;;30.76;30.19;99583.41;7819892;32;37174;-78
2023/07/04 15:30:54;;;;;;;10.10;4.20;;;;;;;31.20;29.76;99578.22;7819343;32;39246;-78
2023/07/04 15:35:10;;;;;;;8.27;3.53;;;;;;;31.51;28.64;99578.31;7797087;32;39670;-78
2023/07/04 15:39:26;;;;;;;8.75;3.87;;;;;;;30.10;29.40;99585.06;7792903;31;37997;-78
2023/07/04 15:43:43;;;;;;;9.18;3.67;;;;;;;31.25;28.25;99577.75;7805578;32;38068;-79
2023/07/04 15:47:59;;;;;;;7.25;3.25;;;;;;;31.68;27.15;99577.31;7819272;32;39978;-79
2023/07/04 15:52:15;;;;;;;9.77;3.30;;;;;;;31.58;29.44;99576.25;7800922;32;39985;-80
2023/07/04 15:56:33;;;;;;;8.98;3.78;;;;;;;31.44;27.96;99571.53;7792121;32;37623;-79
2023/07/04 16:00:50;;;;;;;9.98;4.00;;;;;;;31.28;28.75;99579.75;7791395;32;37005;-79
2023/07/04 16:05:07;;;;;;;11.55;4.50;;;;;;;31.66;28.19;99571.31;7793247;32;39350;-78
2023/07/04 16:09:24;;;;;;;8.90;4.10;;;;;;;30.66;29.03;99573.06;7802885;32;41371;-79
2023/07/04 16:13:42;;;;;;;8.93;3.75;;;;;;;31.23;28.69;99569.72;7803027;31;37887;-79
2023/07/04 16:17:59;;;;;;;7.78;3.70;;;;;;;31.19;28.56;99559.75;7800624;32;36831;-79
2023/07/04 16:22:15;;;;;;;7.37;3.53;;;;;;;31.38;28.30;99559.13;7808191;32;40924;-79
2023/07/04 16:26:32;;;;;;;6.50;3.50;;;;;;;31.36;28.40;99560.78;7818592;32;39723;-79
2023/07/04 16:30:49;;;;;;;7.12;3.70;;;;;;;31.57;27.84;99566.19;7817977;32;38673;-78
2023/07/04 16:35:06;;;;;;;9.10;3.90;;;;;;;31.36;29.36;99564.38;7791759;32;37041;-79
2023/07/04 16:39:22;;;;;;;9.95;3.90;;;;;;;31.28;27.79;99565.66;7791398;32;39570;-79
2023/07/04 16:43:40;;;;;;;9.68;4.03;;;;;;;31.12;28.21;99560.63;7790782;32;40008;-80
2023/07/04 16:47:59;;;;;;;8.32;3.78;;;;;;;31.03;29.66;99552.66;7791326;32;37549;-79
2023/07/04 16:52:16;;;;;;;7.45;3.37;;;;;;;30.99;29.46;99551.87;7790939;32;37017;-79
2023/07/04 16:56:32;;;;;;;9.57;4.05;;;;;;;30.82;30.64;99550.00;7790912;32;38970;-79
2023/07/04 17:00:48;;;;;;;8.98;4.05;;;;;;;30.92;29.75;99543.47;7790464;32;40817;-78
2023/07/04 17:05:05;;;;;;;8.95;3.72;;;;;;;30.94;29.46;99543.87;7789992;32;38744;-79
2023/07/04 17:09:22;;;;;;;9.25;4.20;;;;;;;30.99;29.72;99540.62;7790577;32;37402;-79
2023/07/04 17:13:38;;;;;;;8.18;3.45;;;;;;;30.46;30.04;99548.31;7790447;31;39121;-78
2023/07/04 17:17:55;;;;;;;9.35;3.75;;;;;;;30.47;30.66;99549.09;7800536;32;40916;-79
2023/07/04 17:22:12;;;;;;;7.82;3.85;;;;;;;30.26;31.11;99544.41;7789509;32;35832;-72
2023/07/04 17:26:28;;;;;;;10.02;3.60;;;;;;;29.92;32.17;99547.81;7790451;32;37579;-77
2023/07/04 17:30:44;;;;;;;5.40;3.42;;;;;;;29.69;33.80;99543.47;7801549;32;40011;-79
2023/07/04 17:35:01;;;;;;;10.18;4.07;;;;;;;29.69;34.06;99545.50;7815846;32;39863;-79
2023/07/04 17:39:17;;;;;;;8.88;4.32;;;;;;;29.08;37.40;99546.47;7817246;32;37878;-80
2023/07/04 17:43:33;;;;;;;7.12;3.62;;;;;;;28.79;38.01;99552.09;7835967;31;37929;-80
2023/07/04 17:47:50;;;;;;;9.85;3.97;;;;;;;28.75;38.25;99562.53;7848673;31;39362;-80
2023/07/04 17:52:09;;;;;;;11.25;5.25;;;;;;;28.61;39.20;99565.31;7848704;31;40691;-80
2023/07/04 17:56:26;;;;;;;8.55;4.37;;;;;;;28.23;41.46;99570.44;7809766;31;37953;-80
2023/07/04 18:00:42;;;;;;;9.52;5.10;;;;;;;28.00;41.89;99573.59;7800057;32;36783;-80
2023/07/04 18:04:58;;;;;;;11.57;4.90;;;;;;;27.83;42.41;99591.91;7819773;32;39351;-79
2023/07/04 18:09:15;;;;;;;10.77;4.78;;;;;;;27.72;41.72;99598.25;7815117;32;39900;-80
2023/07/04 18:13:32;;;;;;;10.90;4.40;;;;;;;27.41;42.63;99593.31;7793363;32;37879;-79
2023/07/04 18:17:48;;;;;;;18.05;6.65;;;;;;;27.38;44.25;99599.69;7804658;32;36815;-81
2023/07/04 18:22:05;;;;;;;24.73;6.60;;;;;;;27.17;45.12;99601.12;7820594;32;39362;-82
2023/07/04 18:26:22;;;;;;;21.70;6.20;;;;;;;26.94;46.01;99598.53;7813411;32;39994;-82
2023/07/04 18:30:39;;;;;;;9.07;4.32;;;;;;;26.64;47.09;99601.50;7805449;32;38745;-82
2023/07/04 18:34:55;;;;;;;11.93;4.60;;;;;;;26.51;47.28;99607.34;7820586;32;37352;-83
2023/07/04 18:39:12;;;;;;;8.65;4.20;;;;;;;26.32;47.56;99607.50;7820456;32;39911;-82
2023/07/04 18:43:28;;;;;;;9.45;4.05;;;;;;;26.19;47.92;99605.00;7804466;32;40613;-80
2023/07/04 18:47:48;;;;;;;11.70;4.50;;;;;;;26.01;47.85;99615.19;7808735;31;38012;-80
2023/07/04 18:52:05;;;;;;;11.00;4.30;;;;;;;25.64;49.57;99615.84;7815745;31;37168;-81
2023/07/04 18:56:22;;;;;;;10.02;3.95;;;;;;;25.78;49.57;99624.41;7824145;31;39404;-82
2023/07/04 19:00:41;;;;;;;10.85;3.92;;;;;;;25.38;50.99;99633.44;7805760;31;40103;-81
2023/07/04 19:05:00;;;;;;;7.43;3.87;;;;;;;25.34;51.01;99636.19;7806175;31;37945;-82
2023/07/04 19:09:18;;;;;;;9.88;4.28;;;;;;;25.19;51.60;99643.47;7801923;31;36979;-81
2023/07/04 19:13:35;;;;;;;12.02;3.85;;;;;;;25.16;51.79;99643.44;7803890;32;39375;-80
2023/07/04 19:17:52;;;;;;;8.57;4.18;;;;;;;24.96;52.22;99646.31;7791051;32;40804;-80
2023/07/04 19:22:10;;;;;;;9.77;3.97;;;;;;;24.83;52.50;99653.25;7797795;32;38313;-79
2023/07/04 19:26:27;;;;;;;11.85;4.70;;;;;;;24.61;53.21;99664.00;7802137;32;36802;-82
2023/07/04 19:30:56;;;;;;;9.90;4.03;;;;;;;24.47;53.64;99672.06;7809113;31;39256;-82
2023/07/04 19:35:13;;;;;;;9.52;4.30;;;;;;;24.25;54.28;99677.22;7811209;31;39813;-79
2023/07/04 19:39:32;;;;;;;7.75;4.35;;;;;;;24.27;54.23;99674.88;7823433;31;37879;-80
2023/07/04 19:43:49;;;;;;;10.82;5.35;;;;;;;24.22;54.55;99696.66;7824898;31;36754;-80
2023/07/04 19:48:05;;;;;;;10.98;4.68;;;;;;;23.89;55.30;99703.50;7831136;31;39288;-81
2023/07/04 19:52:22;;;;;;;10.88;5.03;;;;;;;23.89;54.99;99717.44;7847196;31;39753;-81
2023/07/04 19:56:39;;;;;;;10.38;4.60;;;;;;;23.61;56.01;99724.72;7820167;31;38688;-84
2023/07/04 20:00:56;;;;;;;9.75;4.45;;;;;;;23.65;55.91;99713.69;7810079;31;37051;-80
2023/07/04 20:05:13;;;;;;;9.30;4.70;;;;;;;23.56;56.46;99725.00;7817129;31;39523;-80
2023/07/04 20:09:30;;;;;;;7.30;4.10;;;;;;;23.42;56.69;99721.84;7808440;31;39927;-80
2023/07/04 20:13:47;;;;;;;14.63;4.55;;;;;;;23.41;56.30;99709.94;7821693;31;38757;-80